sensor_id;sensor_type;location;lat;lon;timestamp;pressure;altitude;pressure_sealevel;temperature;humidity
10706;BME280;5404;42.656;23.336;2023-05-01T00:01:21;94832.84;;;11.79;100.00
10706;BME280;5404;42.656;23.336;2023-05-01T00:03:46;94834.56;;;11.75;100.00
10706;BME280;5404;42.656;23.336;2023-05-01T00:06:12;94844.22;;;11.70;100.00
10706;BME280;5404;42.656;23.336;2023-05-01T00:08:37;94841.25;;;11.72;100.00
10706;BME280;5404;42.656;23.336;2023-05-01T00:11:03;94845.69;;;11.63;100.00
10706;BME280;5404;42.656;23.336;2023-05-01T00:13:30;94800.59;;;11.26;100.00
10706;BME280;5404;42.656;23.336;2023-05-01T00:15:56;94838.72;;;11.40;100.00
10706;BME280;5404;42.656;23.336;2023-05-01T00:18:21;94855.88;;;11.47;100.00
10706;BME280;5404;42.656;23.336;2023-05-01T00:20:49;94723.81;;;10.74;100.00
10706;BME280;5404;42.656;23.336;2023-05-01T00:23:15;94853.91;;;11.53;100.00
10706;BME280;5404;42.656;23.336;2023-05-01T00:25:41;94853.72;;;11.49;100.00
10706;BME280;5404;42.656;23.336;2023-05-01T00:28:06;94858.56;;;11.47;100.00
10706;BME280;5404;42.656;23.336;2023-05-01T00:30:32;94854.63;;;11.45;100.00
10706;BME280;5404;42.656;23.336;2023-05-01T00:32:58;94855.59;;;11.49;100.00
10706;BME280;5404;42.656;23.336;2023-05-01T00:35:24;94858.38;;;11.44;100.00
10706;BME280;5404;42.656;23.336;2023-05-01T00:37:50;94856.69;;;11.34;100.00
10706;BME280;5404;42.656;23.336;2023-05-01T00:40:16;94856.31;;;11.27;100.00
10706;BME280;5404;42.656;23.336;2023-05-01T00:42:43;94872.09;;;11.24;100.00
10706;BME280;5404;42.656;23.336;2023-05-01T00:45:10;94866.88;;;11.19;100.00
10706;BME280;5404;42.656;23.336;2023-05-01T00:47:37;94865.00;;;11.19;100.00
10706;BME280;5404;42.656;23.336;2023-05-01T00:50:04;94868.75;;;11.18;100.00
10706;BME280;5404;42.656;23.336;2023-05-01T00:52:30;94872.50;;;11.17;100.00
10706;BME280;5404;42.656;23.336;2023-05-01T00:54:56;94876.66;;;11.23;100.00
10706;BME280;5404;42.656;23.336;2023-05-01T00:57:23;94881.00;;;11.19;100.00
10706;BME280;5404;42.656;23.336;2023-05-01T00:59:48;94889.31;;;11.18;100.00
10706;BME280;5404;42.656;23.336;2023-05-01T01:02:15;94876.75;;;11.05;100.00
10706;BME280;5404;42.656;23.336;2023-05-01T01:04:43;94886.34;;;11.06;100.00
10706;BME280;5404;42.656;23.336;2023-05-01T01:13:07;94891.16;;;10.90;100.00
10706;BME280;5404;42.656;23.336;2023-05-01T01:15:44;94883.69;;;10.74;100.00
10706;BME280;5404;42.656;23.336;2023-05-01T01:18:33;94863.03;;;10.52;100.00
10706;BME280;5404;42.656;23.336;2023-05-01T01:21:13;94899.47;;;10.70;100.00
10706;BME280;5404;42.656;23.336;2023-05-01T01:29:11;94870.78;;;10.35;100.00
10706;BME280;5404;42.656;23.336;2023-05-01T01:34:49;94913.25;;;10.58;100.00
10706;BME280;5404;42.656;23.336;2023-05-01T01:40:04;94918.53;;;10.45;100.00
10706;BME280;5404;42.656;23.336;2023-05-01T01:42:40;94913.50;;;10.43;100.00
10706;BME280;5404;42.656;23.336;2023-05-01T01:45:37;94915.97;;;10.40;100.00
10706;BME280;5404;42.656;23.336;2023-05-01T01:48:06;94912.88;;;10.33;100.00
10706;BME280;5404;42.656;23.336;2023-05-01T01:50:34;94913.47;;;10.30;100.00
10706;BME280;5404;42.656;23.336;2023-05-01T01:53:04;94915.81;;;10.31;100.00
10706;BME280;5404;42.656;23.336;2023-05-01T01:55:33;94916.03;;;10.35;100.00
10706;BME280;5404;42.656;23.336;2023-05-01T01:58:02;94912.88;;;10.33;100.00
10706;BME280;5404;42.656;23.336;2023-05-01T02:00:28;94916.41;;;10.28;100.00
10706;BME280;5404;42.656;23.336;2023-05-01T02:02:57;94918.88;;;10.25;100.00
10706;BME280;5404;42.656;23.336;2023-05-01T02:05:26;94919.00;;;10.15;100.00
10706;BME280;5404;42.656;23.336;2023-05-01T02:07:53;94913.19;;;10.08;100.00
10706;BME280;5404;42.656;23.336;2023-05-01T02:10:21;94915.72;;;9.99;100.00
10706;BME280;5404;42.656;23.336;2023-05-01T02:12:50;94908.09;;;9.93;100.00
10706;BME280;5404;42.656;23.336;2023-05-01T02:15:17;94907.59;;;9.91;100.00
10706;BME280;5404;42.656;23.336;2023-05-01T02:17:46;94908.38;;;9.91;100.00
10706;BME280;5404;42.656;23.336;2023-05-01T02:20:12;94920.97;;;9.86;100.00
10706;BME280;5404;42.656;23.336;2023-05-01T02:22:41;94921.31;;;9.79;100.00
10706;BME280;5404;42.656;23.336;2023-05-01T02:25:12;94929.53;;;9.83;100.00
10706;BME280;5404;42.656;23.336;2023-05-01T02:27:58;94922.13;;;9.80;100.00
10706;BME280;5404;42.656;23.336;2023-05-01T02:30:26;94926.78;;;9.69;100.00
10706;BME280;5404;42.656;23.336;2023-05-01T02:32:51;94918.78;;;9.69;100.00
10706;BME280;5404;42.656;23.336;2023-05-01T02:35:17;94922.09;;;9.61;100.00
10706;BME280;5404;42.656;23.336;2023-05-01T02:37:44;94921.00;;;9.62;100.00
10706;BME280;5404;42.656;23.336;2023-05-01T02:40:14;94923.00;;;9.52;100.00
10706;BME280;5404;42.656;23.336;2023-05-01T02:42:42;94922.84;;;9.43;100.00
10706;BME280;5404;42.656;23.336;2023-05-01T02:45:10;94922.84;;;9.43;100.00
10706;BME280;5404;42.656;23.336;2023-05-01T02:47:42;94920.81;;;9.35;100.00
10706;BME280;5404;42.656;23.336;2023-05-01T02:50:10;94922.78;;;9.24;100.00
10706;BME280;5404;42.656;23.336;2023-05-01T02:52:37;94931.78;;;9.28;100.00
10706;BME280;5404;42.656;23.336;2023-05-01T02:55:03;94931.28;;;9.26;100.00
10706;BME280;5404;42.656;23.336;2023-05-01T02:57:33;94934.28;;;9.20;100.00
10706;BME280;5404;42.656;23.336;2023-05-01T02:59:59;94931.94;;;9.13;100.00
10706;BME280;5404;42.656;23.336;2023-05-01T03:02:24;94935.91;;;9.16;100.00
10706;BME280;5404;42.656;23.336;2023-05-01T03:04:50;94919.53;;;9.04;100.00
10706;BME280;5404;42.656;23.336;2023-05-01T03:07:15;94947.94;;;9.08;100.00
10706;BME280;5404;42.656;23.336;2023-05-01T03:09:42;94940.00;;;9.03;100.00
10706;BME280;5404;42.656;23.336;2023-05-01T03:12:07;94949.06;;;9.02;100.00
10706;BME280;5404;42.656;23.336;2023-05-01T03:14:33;94952.78;;;9.01;100.00
10706;BME280;5404;42.656;23.336;2023-05-01T03:16:59;94952.00;;;9.01;100.00
10706;BME280;5404;42.656;23.336;2023-05-01T03:19:24;94950.97;;;8.97;100.00
10706;BME280;5404;42.656;23.336;2023-05-01T03:21:50;94949.69;;;8.89;100.00
10706;BME280;5404;42.656;23.336;2023-05-01T03:24:15;94951.31;;;8.90;100.00
10706;BME280;5404;42.656;23.336;2023-05-01T03:26:41;94955.31;;;8.88;100.00
10706;BME280;5404;42.656;23.336;2023-05-01T03:29:07;94919.16;;;8.63;100.00
10706;BME280;5404;42.656;23.336;2023-05-01T03:31:34;94956.94;;;8.84;100.00
10706;BME280;5404;42.656;23.336;2023-05-01T03:34:01;94963.28;;;8.88;100.00
10706;BME280;5404;42.656;23.336;2023-05-01T03:36:26;94966.97;;;8.92;100.00
10706;BME280;5404;42.656;23.336;2023-05-01T03:38:52;94976.22;;;8.99;100.00
10706;BME280;5404;42.656;23.336;2023-05-01T03:41:18;94961.03;;;9.00;100.00
10706;BME280;5404;42.656;23.336;2023-05-01T03:43:43;94982.25;;;9.05;100.00
10706;BME280;5404;42.656;23.336;2023-05-01T03:46:10;94987.84;;;9.03;100.00
10706;BME280;5404;42.656;23.336;2023-05-01T03:48:35;95004.06;;;9.02;100.00
10706;BME280;5404;42.656;23.336;2023-05-01T03:51:01;94976.28;;;8.89;100.00
10706;BME280;5404;42.656;23.336;2023-05-01T03:53:26;94997.91;;;9.11;100.00
10706;BME280;5404;42.656;23.336;2023-05-01T03:55:52;94995.44;;;9.15;100.00
10706;BME280;5404;42.656;23.336;2023-05-01T03:58:18;94997.00;;;9.21;100.00
10706;BME280;5404;42.656;23.336;2023-05-01T04:00:43;95001.97;;;9.27;100.00
10706;BME280;5404;42.656;23.336;2023-05-01T04:03:08;95005.03;;;9.39;100.00
10706;BME280;5404;42.656;23.336;2023-05-01T04:05:36;94999.63;;;9.50;100.00
10706;BME280;5404;42.656;23.336;2023-05-01T04:08:01;95008.06;;;9.57;100.00
10706;BME280;5404;42.656;23.336;2023-05-01T04:10:28;94999.19;;;9.66;100.00
10706;BME280;5404;42.656;23.336;2023-05-01T04:12:53;95003.28;;;9.77;100.00
10706;BME280;5404;42.656;23.336;2023-05-01T04:15:19;94994.97;;;9.84;100.00
10706;BME280;5404;42.656;23.336;2023-05-01T04:17:46;95000.78;;;9.86;100.00
10706;BME280;5404;42.656;23.336;2023-05-01T04:20:12;94997.38;;;9.85;100.00
10706;BME280;5404;42.656;23.336;2023-05-01T04:22:38;95001.47;;;9.96;100.00
10706;BME280;5404;42.656;23.336;2023-05-01T04:25:05;95000.53;;;10.11;100.00
10706;BME280;5404;42.656;23.336;2023-05-01T04:27:31;94990.03;;;10.19;100.00
10706;BME280;5404;42.656;23.336;2023-05-01T04:29:56;94998.09;;;10.33;100.00
10706;BME280;5404;42.656;23.336;2023-05-01T04:32:22;94999.03;;;10.42;100.00
10706;BME280;5404;42.656;23.336;2023-05-01T04:34:47;94996.81;;;10.49;100.00
10706;BME280;5404;42.656;23.336;2023-05-01T04:37:13;94944.97;;;10.23;100.00
10706;BME280;5404;42.656;23.336;2023-05-01T04:39:42;94994.97;;;10.63;100.00
10706;BME280;5404;42.656;23.336;2023-05-01T04:42:07;94997.56;;;10.68;100.00
10706;BME280;5404;42.656;23.336;2023-05-01T04:44:33;94994.13;;;10.68;100.00
10706;BME280;5404;42.656;23.336;2023-05-01T04:47:00;94995.03;;;10.77;100.00
10706;BME280;5404;42.656;23.336;2023-05-01T04:49:28;94997.28;;;10.88;100.00
10706;BME280;5404;42.656;23.336;2023-05-01T04:51:55;94992.44;;;10.90;100.00
10706;BME280;5404;42.656;23.336;2023-05-01T04:54:21;94997.41;;;10.97;100.00
10706;BME280;5404;42.656;23.336;2023-05-01T04:56:47;94989.41;;;10.97;100.00
10706;BME280;5404;42.656;23.336;2023-05-01T04:59:13;94994.25;;;11.08;100.00
10706;BME280;5404;42.656;23.336;2023-05-01T05:01:38;94992.31;;;11.14;100.00
10706;BME280;5404;42.656;23.336;2023-05-01T05:04:04;95003.59;;;11.24;100.00
10706;BME280;5404;42.656;23.336;2023-05-01T05:06:31;94996.56;;;11.28;100.00
10706;BME280;5404;42.656;23.336;2023-05-01T05:08:57;94995.91;;;11.36;100.00
10706;BME280;5404;42.656;23.336;2023-05-01T05:11:22;95001.78;;;11.52;100.00
10706;BME280;5404;42.656;23.336;2023-05-01T05:13:48;95007.66;;;11.67;100.00
10706;BME280;5404;42.656;23.336;2023-05-01T05:16:14;94998.94;;;11.76;100.00
10706;BME280;5404;42.656;23.336;2023-05-01T05:18:39;95001.81;;;11.93;100.00
10706;BME280;5404;42.656;23.336;2023-05-01T05:21:05;95011.69;;;12.06;100.00
10706;BME280;5404;42.656;23.336;2023-05-01T05:23:32;94995.56;;;12.11;100.00
10706;BME280;5404;42.656;23.336;2023-05-01T05:26:01;95000.81;;;12.16;100.00
10706;BME280;5404;42.656;23.336;2023-05-01T05:28:27;95001.78;;;12.20;100.00
10706;BME280;5404;42.656;23.336;2023-05-01T05:30:53;95005.13;;;12.25;100.00
10706;BME280;5404;42.656;23.336;2023-05-01T05:33:20;95007.91;;;12.34;100.00
10706;BME280;5404;42.656;23.336;2023-05-01T05:35:46;95003.72;;;12.41;100.00
10706;BME280;5404;42.656;23.336;2023-05-01T05:38:11;94988.09;;;12.35;100.00
10706;BME280;5404;42.656;23.336;2023-05-01T05:40:37;94982.66;;;12.26;100.00
10706;BME280;5404;42.656;23.336;2023-05-01T05:43:03;94998.66;;;12.53;100.00
10706;BME280;5404;42.656;23.336;2023-05-01T05:45:33;95004.75;;;12.67;100.00
10706;BME280;5404;42.656;23.336;2023-05-01T05:47:58;95003.22;;;12.75;100.00
10706;BME280;5404;42.656;23.336;2023-05-01T05:50:24;94992.16;;;12.90;100.00
10706;BME280;5404;42.656;23.336;2023-05-01T05:52:50;95000.88;;;12.96;100.00
10706;BME280;5404;42.656;23.336;2023-05-01T05:55:16;94989.19;;;13.05;100.00
10706;BME280;5404;42.656;23.336;2023-05-01T05:57:42;94909.59;;;12.66;100.00
10706;BME280;5404;42.656;23.336;2023-05-01T06:00:07;94996.06;;;13.28;100.00
10706;BME280;5404;42.656;23.336;2023-05-01T06:02:36;94999.25;;;13.30;100.00
10706;BME280;5404;42.656;23.336;2023-05-01T06:05:02;94961.69;;;13.13;100.00
10706;BME280;5404;42.656;23.336;2023-05-01T06:07:28;94991.25;;;13.39;100.00
10706;BME280;5404;42.656;23.336;2023-05-01T06:09:54;94966.81;;;13.32;100.00
10706;BME280;5404;42.656;23.336;2023-05-01T06:12:21;94992.16;;;13.56;100.00
10706;BME280;5404;42.656;23.336;2023-05-01T06:14:47;94995.94;;;13.64;100.00
10706;BME280;5404;42.656;23.336;2023-05-01T06:17:12;94991.44;;;13.73;100.00
10706;BME280;5404;42.656;23.336;2023-05-01T06:19:38;94996.66;;;13.78;100.00
10706;BME280;5404;42.656;23.336;2023-05-01T06:22:03;94996.84;;;13.90;100.00
10706;BME280;5404;42.656;23.336;2023-05-01T06:24:30;94996.69;;;13.95;100.00
10706;BME280;5404;42.656;23.336;2023-05-01T06:26:57;94998.19;;;14.10;100.00
10706;BME280;5404;42.656;23.336;2023-05-01T06:29:23;94998.53;;;14.17;100.00
10706;BME280;5404;42.656;23.336;2023-05-01T06:31:50;94990.81;;;14.24;100.00
10706;BME280;5404;42.656;23.336;2023-05-01T06:34:15;94991.88;;;14.14;100.00
10706;BME280;5404;42.656;23.336;2023-05-01T06:36:41;94989.63;;;13.99;100.00
10706;BME280;5404;42.656;23.336;2023-05-01T06:39:06;94981.59;;;13.99;100.00
10706;BME280;5404;42.656;23.336;2023-05-01T06:41:32;94971.19;;;13.97;100.00
10706;BME280;5404;42.656;23.336;2023-05-01T06:43:58;94984.97;;;14.22;100.00
10706;BME280;5404;42.656;23.336;2023-05-01T06:46:24;94991.00;;;14.27;100.00
10706;BME280;5404;42.656;23.336;2023-05-01T06:48:49;94992.28;;;14.38;100.00
10706;BME280;5404;42.656;23.336;2023-05-01T06:51:14;94993.72;;;14.36;100.00
10706;BME280;5404;42.656;23.336;2023-05-01T06:53:40;94988.81;;;14.38;100.00
10706;BME280;5404;42.656;23.336;2023-05-01T06:56:06;94981.25;;;14.48;100.00
10706;BME280;5404;42.656;23.336;2023-05-01T06:58:32;94991.19;;;14.48;100.00
10706;BME280;5404;42.656;23.336;2023-05-01T07:00:57;94990.88;;;14.41;100.00
10706;BME280;5404;42.656;23.336;2023-05-01T07:03:23;94993.25;;;14.51;100.00
10706;BME280;5404;42.656;23.336;2023-05-01T07:05:52;94988.38;;;14.53;100.00
10706;BME280;5404;42.656;23.336;2023-05-01T07:08:17;94987.75;;;14.64;100.00
10706;BME280;5404;42.656;23.336;2023-05-01T07:10:43;94986.00;;;14.77;100.00
10706;BME280;5404;42.656;23.336;2023-05-01T07:13:08;94990.41;;;14.90;100.00
10706;BME280;5404;42.656;23.336;2023-05-01T07:15:34;94984.13;;;15.03;100.00
10706;BME280;5404;42.656;23.336;2023-05-01T07:17:59;94982.97;;;15.12;100.00
10706;BME280;5404;42.656;23.336;2023-05-01T07:20:27;94978.91;;;15.15;100.00
10706;BME280;5404;42.656;23.336;2023-05-01T07:22:52;94980.28;;;15.30;100.00
10706;BME280;5404;42.656;23.336;2023-05-01T07:25:21;94977.25;;;15.48;100.00
10706;BME280;5404;42.656;23.336;2023-05-01T07:27:47;94977.69;;;15.59;100.00
10706;BME280;5404;42.656;23.336;2023-05-01T07:30:12;94970.06;;;15.69;100.00
10706;BME280;5404;42.656;23.336;2023-05-01T07:32:38;94979.13;;;15.65;100.00
10706;BME280;5404;42.656;23.336;2023-05-01T07:35:03;94978.25;;;15.81;100.00
10706;BME280;5404;42.656;23.336;2023-05-01T07:37:29;94976.94;;;15.96;100.00
10706;BME280;5404;42.656;23.336;2023-05-01T07:39:55;94970.53;;;16.09;100.00
10706;BME280;5404;42.656;23.336;2023-05-01T07:42:22;94970.56;;;16.29;100.00
10706;BME280;5404;42.656;23.336;2023-05-01T07:44:49;94964.94;;;16.43;100.00
10706;BME280;5404;42.656;23.336;2023-05-01T07:47:15;94969.44;;;16.60;100.00
10706;BME280;5404;42.656;23.336;2023-05-01T07:49:41;94965.91;;;16.68;100.00
10706;BME280;5404;42.656;23.336;2023-05-01T07:52:08;94963.88;;;16.85;100.00
10706;BME280;5404;42.656;23.336;2023-05-01T07:54:33;94959.94;;;16.83;100.00
10706;BME280;5404;42.656;23.336;2023-05-01T07:56:59;94958.88;;;16.96;100.00
10706;BME280;5404;42.656;23.336;2023-05-01T07:59:26;94954.88;;;17.02;100.00
10706;BME280;5404;42.656;23.336;2023-05-01T08:01:51;94958.59;;;17.09;100.00
10706;BME280;5404;42.656;23.336;2023-05-01T08:04:17;94958.53;;;17.18;100.00
10706;BME280;5404;42.656;23.336;2023-05-01T08:06:43;94942.63;;;17.25;100.00
10706;BME280;5404;42.656;23.336;2023-05-01T08:09:08;94949.81;;;17.33;100.00
10706;BME280;5404;42.656;23.336;2023-05-01T08:11:34;94951.81;;;17.24;100.00
10706;BME280;5404;42.656;23.336;2023-05-01T08:13:59;94949.94;;;17.36;100.00
10706;BME280;5404;42.656;23.336;2023-05-01T08:16:25;94955.72;;;17.47;100.00
10706;BME280;5404;42.656;23.336;2023-05-01T08:18:51;94868.81;;;16.93;100.00
10706;BME280;5404;42.656;23.336;2023-05-01T08:21:16;94948.75;;;17.46;100.00
10706;BME280;5404;42.656;23.336;2023-05-01T08:23:43;94954.59;;;17.48;100.00
10706;BME280;5404;42.656;23.336;2023-05-01T08:26:09;94945.84;;;17.51;100.00
10706;BME280;5404;42.656;23.336;2023-05-01T08:28:34;94943.50;;;17.62;100.00
10706;BME280;5404;42.656;23.336;2023-05-01T08:31:00;94951.28;;;17.87;100.00
10706;BME280;5404;42.656;23.336;2023-05-01T08:33:26;94946.13;;;18.06;100.00
10706;BME280;5404;42.656;23.336;2023-05-01T08:35:51;94945.00;;;18.19;100.00
10706;BME280;5404;42.656;23.336;2023-05-01T08:38:17;94951.28;;;18.23;100.00
10706;BME280;5404;42.656;23.336;2023-05-01T08:40:52;94950.81;;;18.21;100.00
10706;BME280;5404;42.656;23.336;2023-05-01T08:43:18;94942.53;;;18.02;100.00
10706;BME280;5404;42.656;23.336;2023-05-01T08:45:46;94899.41;;;17.78;100.00
10706;BME280;5404;42.656;23.336;2023-05-01T08:48:15;94935.56;;;18.13;100.00
10706;BME280;5404;42.656;23.336;2023-05-01T08:50:44;94935.19;;;18.27;100.00
10706;BME280;5404;42.656;23.336;2023-05-01T08:53:10;94938.00;;;18.30;100.00
10706;BME280;5404;42.656;23.336;2023-05-01T08:55:37;94924.63;;;18.34;100.00
10706;BME280;5404;42.656;23.336;2023-05-01T08:58:04;94939.38;;;18.48;100.00
10706;BME280;5404;42.656;23.336;2023-05-01T09:00:31;94931.78;;;18.66;100.00
10706;BME280;5404;42.656;23.336;2023-05-01T09:03:00;94935.72;;;18.69;100.00
10706;BME280;5404;42.656;23.336;2023-05-01T09:05:31;94939.19;;;18.81;100.00
10706;BME280;5404;42.656;23.336;2023-05-01T09:07:57;94918.53;;;18.89;100.00
10706;BME280;5404;42.656;23.336;2023-05-01T09:10:23;94928.19;;;19.29;100.00
10706;BME280;5404;42.656;23.336;2023-05-01T09:12:54;94924.72;;;19.44;100.00
10706;BME280;5404;42.656;23.336;2023-05-01T09:15:20;94933.19;;;19.43;100.00
10706;BME280;5404;42.656;23.336;2023-05-01T09:17:46;94925.78;;;19.40;100.00
10706;BME280;5404;42.656;23.336;2023-05-01T09:20:12;94928.91;;;19.42;98.58
10706;BME280;5404;42.656;23.336;2023-05-01T09:22:38;94922.84;;;19.60;99.53
10706;BME280;5404;42.656;23.336;2023-05-01T09:25:04;94887.25;;;19.58;96.80
10706;BME280;5404;42.656;23.336;2023-05-01T09:27:36;94928.63;;;20.75;89.22
10706;BME280;5404;42.656;23.336;2023-05-01T09:30:03;94932.78;;;21.87;76.54
10706;BME280;5404;42.656;23.336;2023-05-01T09:32:31;94936.63;;;23.17;72.21
10706;BME280;5404;42.656;23.336;2023-05-01T09:35:25;94935.63;;;24.52;61.93
10706;BME280;5404;42.656;23.336;2023-05-01T09:37:53;94933.63;;;25.03;57.25
10706;BME280;5404;42.656;23.336;2023-05-01T09:40:19;94922.56;;;25.79;55.08
10706;BME280;5404;42.656;23.336;2023-05-01T09:42:51;94896.50;;;26.23;53.07
10706;BME280;5404;42.656;23.336;2023-05-01T09:45:22;94918.31;;;26.62;49.94
10706;BME280;5404;42.656;23.336;2023-05-01T09:47:48;94928.06;;;26.84;48.98
10706;BME280;5404;42.656;23.336;2023-05-01T09:50:33;94922.88;;;27.14;48.30
10706;BME280;5404;42.656;23.336;2023-05-01T09:53:03;94921.69;;;27.29;49.04
10706;BME280;5404;42.656;23.336;2023-05-01T09:55:32;94920.16;;;27.97;43.37
10706;BME280;5404;42.656;23.336;2023-05-01T09:57:58;94907.59;;;28.03;43.76
10706;BME280;5404;42.656;23.336;2023-05-01T10:00:24;94912.84;;;28.31;41.21
10706;BME280;5404;42.656;23.336;2023-05-01T10:02:51;94835.09;;;26.88;43.51
10706;BME280;5404;42.656;23.336;2023-05-01T10:05:17;94905.78;;;26.89;44.94
10706;BME280;5404;42.656;23.336;2023-05-01T10:07:59;94917.53;;;26.55;45.62
10706;BME280;5404;42.656;23.336;2023-05-01T10:10:25;94907.41;;;26.55;46.54
10706;BME280;5404;42.656;23.336;2023-05-01T10:12:52;94910.47;;;26.64;46.26
10706;BME280;5404;42.656;23.336;2023-05-01T10:15:18;94907.38;;;26.76;44.56
10706;BME280;5404;42.656;23.336;2023-05-01T10:17:49;94906.22;;;25.86;45.93
10706;BME280;5404;42.656;23.336;2023-05-01T10:20:16;94908.88;;;25.44;48.25
10706;BME280;5404;42.656;23.336;2023-05-01T10:22:42;94910.84;;;25.54;46.61
10706;BME280;5404;42.656;23.336;2023-05-01T10:25:09;94900.38;;;25.98;46.17
10706;BME280;5404;42.656;23.336;2023-05-01T10:27:39;94905.66;;;25.24;46.53
10706;BME280;5404;42.656;23.336;2023-05-01T10:30:06;94914.06;;;23.86;50.40
10706;BME280;5404;42.656;23.336;2023-05-01T10:32:33;94923.63;;;23.03;53.54
10706;BME280;5404;42.656;23.336;2023-05-01T10:35:03;94907.66;;;22.98;56.52
10706;BME280;5404;42.656;23.336;2023-05-01T10:37:40;94903.00;;;23.65;53.47
10706;BME280;5404;42.656;23.336;2023-05-01T10:45:39;94910.16;;;24.31;43.54
10706;BME280;5404;42.656;23.336;2023-05-01T10:48:04;94905.44;;;23.37;48.12
10706;BME280;5404;42.656;23.336;2023-05-01T10:50:29;94896.69;;;22.91;51.31
10706;BME280;5404;42.656;23.336;2023-05-01T10:55:44;94904.44;;;21.84;58.04
10706;BME280;5404;42.656;23.336;2023-05-01T10:58:11;94904.88;;;21.67;59.03
10706;BME280;5404;42.656;23.336;2023-05-01T11:00:38;94909.13;;;21.65;61.31
10706;BME280;5404;42.656;23.336;2023-05-01T11:08:35;94900.63;;;21.25;75.53
10706;BME280;5404;42.656;23.336;2023-05-01T11:14:04;94916.09;;;21.24;78.92
10706;BME280;5404;42.656;23.336;2023-05-01T11:19:06;94912.72;;;21.08;78.29
10706;BME280;5404;42.656;23.336;2023-05-01T11:21:33;94922.25;;;21.02;79.19
10706;BME280;5404;42.656;23.336;2023-05-01T11:23:59;94922.00;;;20.92;77.90
10706;BME280;5404;42.656;23.336;2023-05-01T11:26:27;94909.53;;;20.68;75.13
10706;BME280;5404;42.656;23.336;2023-05-01T11:29:00;94919.63;;;20.52;77.44
10706;BME280;5404;42.656;23.336;2023-05-01T11:31:26;94912.56;;;20.47;77.57
10706;BME280;5404;42.656;23.336;2023-05-01T11:33:59;94907.34;;;20.39;77.41
10706;BME280;5404;42.656;23.336;2023-05-01T11:36:25;94910.84;;;20.39;77.81
10706;BME280;5404;42.656;23.336;2023-05-01T11:38:54;94898.59;;;20.45;78.19
10706;BME280;5404;42.656;23.336;2023-05-01T11:41:26;94906.22;;;20.59;78.15
10706;BME280;5404;42.656;23.336;2023-05-01T11:43:58;94907.47;;;20.61;77.99
10706;BME280;5404;42.656;23.336;2023-05-01T11:46:31;94906.78;;;20.49;76.86
10706;BME280;5404;42.656;23.336;2023-05-01T11:48:59;94902.00;;;20.42;77.56
10706;BME280;5404;42.656;23.336;2023-05-01T11:51:27;94911.78;;;20.47;79.76
10706;BME280;5404;42.656;23.336;2023-05-01T11:54:07;94905.81;;;20.76;79.46
10706;BME280;5404;42.656;23.336;2023-05-01T11:56:34;94908.75;;;20.86;75.60
10706;BME280;5404;42.656;23.336;2023-05-01T11:59:14;94903.28;;;21.21;73.23
10706;BME280;5404;42.656;23.336;2023-05-01T12:01:42;94904.22;;;21.51;69.93
10706;BME280;5404;42.656;23.336;2023-05-01T12:04:21;94906.47;;;21.68;64.11
10706;BME280;5404;42.656;23.336;2023-05-01T12:06:47;94907.63;;;21.90;61.75
10706;BME280;5404;42.656;23.336;2023-05-01T12:09:17;94913.50;;;22.18;62.11
10706;BME280;5404;42.656;23.336;2023-05-01T12:11:45;94911.16;;;22.17;61.24
10706;BME280;5404;42.656;23.336;2023-05-01T12:14:13;94911.09;;;21.68;57.99
10706;BME280;5404;42.656;23.336;2023-05-01T12:16:41;94903.50;;;21.54;56.00
10706;BME280;5404;42.656;23.336;2023-05-01T12:19:07;94921.81;;;21.19;58.51
10706;BME280;5404;42.656;23.336;2023-05-01T12:21:33;94923.84;;;21.03;60.76
10706;BME280;5404;42.656;23.336;2023-05-01T12:24:10;94926.38;;;20.42;67.36
10706;BME280;5404;42.656;23.336;2023-05-01T12:26:37;94929.75;;;20.20;68.60
10706;BME280;5404;42.656;23.336;2023-05-01T12:29:07;94930.88;;;20.54;66.63
10706;BME280;5404;42.656;23.336;2023-05-01T12:31:33;94937.53;;;20.56;64.63
10706;BME280;5404;42.656;23.336;2023-05-01T12:34:06;94927.13;;;20.58;64.75
10706;BME280;5404;42.656;23.336;2023-05-01T12:36:35;94930.75;;;20.31;69.38
10706;BME280;5404;42.656;23.336;2023-05-01T12:39:10;94930.38;;;20.48;73.17
10706;BME280;5404;42.656;23.336;2023-05-01T12:41:47;94935.09;;;20.51;68.68
10706;BME280;5404;42.656;23.336;2023-05-01T12:44:26;94935.38;;;20.46;71.05
10706;BME280;5404;42.656;23.336;2023-05-01T12:46:58;94934.16;;;20.28;63.07
10706;BME280;5404;42.656;23.336;2023-05-01T12:49:25;94926.53;;;20.49;59.00
10706;BME280;5404;42.656;23.336;2023-05-01T12:51:53;94924.56;;;20.65;64.80
10706;BME280;5404;42.656;23.336;2023-05-01T12:54:29;94915.34;;;20.51;66.52
10706;BME280;5404;42.656;23.336;2023-05-01T12:57:12;94900.47;;;20.60;58.00
10706;BME280;5404;42.656;23.336;2023-05-01T12:59:40;94917.91;;;21.17;56.81
10706;BME280;5404;42.656;23.336;2023-05-01T13:02:08;94909.97;;;21.46;55.34
10706;BME280;5404;42.656;23.336;2023-05-01T13:04:38;94917.59;;;21.41;55.15
10706;BME280;5404;42.656;23.336;2023-05-01T13:07:16;94906.00;;;21.85;54.50
10706;BME280;5404;42.656;23.336;2023-05-01T13:09:52;94915.41;;;21.08;57.67
10706;BME280;5404;42.656;23.336;2023-05-01T13:12:18;94925.44;;;21.46;58.25
10706;BME280;5404;42.656;23.336;2023-05-01T13:14:43;94925.88;;;21.93;54.35
10706;BME280;5404;42.656;23.336;2023-05-01T13:17:10;94888.56;;;22.09;51.89
10706;BME280;5404;42.656;23.336;2023-05-01T13:19:38;94910.69;;;22.37;52.04
10706;BME280;5404;42.656;23.336;2023-05-01T13:22:05;94925.72;;;22.31;53.22
10706;BME280;5404;42.656;23.336;2023-05-01T13:24:41;94905.88;;;22.01;58.68
10706;BME280;5404;42.656;23.336;2023-05-01T13:27:12;94929.28;;;21.86;68.73
10706;BME280;5404;42.656;23.336;2023-05-01T13:29:38;94922.59;;;22.03;71.73
10706;BME280;5404;42.656;23.336;2023-05-01T13:32:09;94938.38;;;21.98;70.52
10706;BME280;5404;42.656;23.336;2023-05-01T13:34:35;94933.03;;;21.78;74.25